Salonica, Greece
Current Conditions -  °F | °C
As of 7:20 PM on Wednesday 28 Jan 2015 (Local Time) from LGTS Reporting Station
Light Rain Light Rain  
Wind Chill:   Ceiling: 3000
Heat Index:   Visibility: 6mi
Dew Point:   Wind: 2mph
Humidity: 93%   Direction: NA
Pressure: 29.85"   Gusts: NA
Location:  40.52°N, 22.97°E
Report Text: LGTS 281620Z VRB02KT 9000 -RA FEW012 FEW018TCU BKN030 OVC070 07/06 Q1011 NOSIG
Loading
Personal Weather Stations






























Interactive Weather Map New forecast layout! Learn more

10-Day Weather Forecast

Advertisements
Track Severe Weather on mobile